Time;durP1;ratioP1;P1;durP2;ratioP2;P2;SDS_P1;SDS_P2;PMS_P1;PMS_P2;Temp;Humidity;BMP_temperature;BMP_pressure;BME280_temperature;BME280_humidity;BME280_pressure;Samples;Min_cycle;Max_cycle;Signal;HPM_P1;HPM_P2
2021/11/05 00:00:20;;;;;;;;;4.25;3.00;;;;;11.49;66.30;101737.41;4963856;28;45276;-79
2021/11/05 00:02:46;;;;;;;;;4.00;4.00;;;;;11.54;65.92;101742.56;4982554;28;45412;-79
2021/11/05 00:05:11;;;;;;;;;6.25;4.50;;;;;11.51;66.04;101742.66;4982624;28;45455;-79
2021/11/05 00:07:37;;;;;;;;;5.00;4.00;;;;;11.48;66.19;101739.16;4982452;28;45559;-79
2021/11/05 00:10:04;;;;;;;;;3.00;3.00;;;;;11.50;65.95;101748.81;4982242;28;45223;-79
2021/11/05 00:12:30;;;;;;;;;3.50;3.50;;;;;11.51;66.16;101751.41;4982678;28;45369;-79
2021/11/05 00:14:55;;;;;;;;;5.50;3.50;;;;;11.52;66.14;101754.91;4981754;28;45533;-79
2021/11/05 00:17:20;;;;;;;;;3.50;3.00;;;;;11.54;66.08;101753.97;4963163;28;45510;-79
2021/11/05 00:19:46;;;;;;;;;5.00;3.50;;;;;11.57;66.15;101758.31;4962462;28;45524;-79
2021/11/05 00:22:11;;;;;;;;;4.00;4.00;;;;;11.59;65.78;101762.66;4964689;28;45544;-81
2021/11/05 00:24:36;;;;;;;;;3.50;3.00;;;;;11.61;66.02;101764.38;4981390;28;45441;-81
2021/11/05 00:27:02;;;;;;;;;4.00;4.00;;;;;11.58;66.11;101765.31;4973910;28;45424;-78
2021/11/05 00:29:27;;;;;;;;;5.50;4.25;;;;;11.59;66.15;101761.78;4962736;28;45378;-80
2021/11/05 00:31:53;;;;;;;;;8.75;5.00;;;;;11.60;65.88;101763.53;4962876;28;45492;-80
2021/11/05 00:34:18;;;;;;;;;3.00;3.00;;;;;11.61;65.95;101761.72;4962540;28;45355;-80
2021/11/05 00:36:45;;;;;;;;;4.25;4.25;;;;;11.61;65.71;101767.88;4962653;28;45583;-80
2021/11/05 00:39:10;;;;;;;;;6.25;5.25;;;;;11.59;65.81;101767.91;4966181;28;45676;-80
2021/11/05 00:41:36;;;;;;;;;4.25;3.75;;;;;11.58;65.70;101760.06;4982178;28;45341;-80
2021/11/05 00:44:01;;;;;;;;;5.25;4.00;;;;;11.56;65.34;101759.19;4981791;28;45174;-80
2021/11/05 00:46:26;;;;;;;;;3.00;3.00;;;;;11.54;65.70;101768.91;4975244;28;45366;-80
2021/11/05 00:48:52;;;;;;;;;8.00;5.00;;;;;11.52;65.58;101771.56;4962393;28;45436;-80
2021/11/05 00:51:17;;;;;;;;;2.75;2.75;;;;;11.51;65.61;101787.41;4962323;28;45413;-81
2021/11/05 00:53:43;;;;;;;;;4.25;4.00;;;;;11.47;65.36;101773.44;4961959;28;45271;-82
2021/11/05 00:56:08;;;;;;;;;4.00;4.00;;;;;11.48;65.20;101786.56;4962441;28;45288;-82
2021/11/05 00:58:33;;;;;;;;;2.75;2.75;;;;;11.43;65.56;101775.25;4961802;28;45246;-82
2021/11/05 01:00:59;;;;;;;;;5.25;3.50;;;;;11.45;65.70;101784.00;4969377;28;45223;-81
2021/11/05 01:03:24;;;;;;;;;5.75;3.00;;;;;11.46;65.53;101783.09;4972137;28;45223;-81
2021/11/05 01:05:49;;;;;;;;;5.00;5.00;;;;;11.46;65.48;101787.47;4961932;28;45244;-82
2021/11/05 01:08:15;;;;;;;;;4.25;3.50;;;;;11.46;65.29;101793.63;4962090;28;45292;-82
2021/11/05 01:10:41;;;;;;;;;5.25;4.00;;;;;11.44;65.55;101787.53;4961966;28;45397;-82
2021/11/05 01:13:07;;;;;;;;;3.25;3.25;;;;;11.48;65.43;101797.09;4977459;28;45457;-81
2021/11/05 01:15:34;;;;;;;;;4.00;3.50;;;;;11.47;65.06;101792.75;4978388;28;46773;-81
2021/11/05 01:18:00;;;;;;;;;7.25;5.00;;;;;11.45;65.33;101807.69;4981250;28;45458;-82
2021/11/05 01:20:25;;;;;;;;;6.25;3.00;;;;;11.41;65.38;101800.72;4963719;28;45338;-82
2021/11/05 01:22:51;;;;;;;;;4.00;4.00;;;;;11.42;65.43;101806.88;4981441;28;45339;-85
2021/11/05 01:25:17;;;;;;;;;3.50;3.50;;;;;11.41;65.27;101800.72;4970024;28;46323;-83
2021/11/05 01:27:47;;;;;;;;;3.75;3.00;;;;;11.43;65.51;101803.34;4963306;28;45443;-83
2021/11/05 01:30:15;;;;;;;;;2.75;2.25;;;;;11.41;65.23;101808.63;4961769;28;45437;-83
2021/11/05 01:32:41;;;;;;;;;4.00;4.00;;;;;11.40;65.47;101804.28;4961531;28;45402;-83
2021/11/05 01:35:07;;;;;;;;;4.50;4.50;;;;;11.42;65.11;101806.88;4944229;28;48362;-83
2021/11/05 01:37:33;;;;;;;;;4.00;4.00;;;;;11.43;65.47;101809.47;4944121;28;45265;-83
2021/11/05 01:39:59;;;;;;;;;2.75;2.25;;;;;11.42;65.35;101812.13;4972513;28;45461;-83
2021/11/05 01:42:24;;;;;;;;;7.75;5.00;;;;;11.40;65.36;101811.31;4980934;28;45429;-83
2021/11/05 01:44:50;;;;;;;;;4.00;3.00;;;;;11.37;65.46;101820.13;4980234;28;45429;-83
2021/11/05 01:47:18;;;;;;;;;5.75;5.00;;;;;11.36;65.03;101819.25;4980567;28;45296;-82
2021/11/05 01:49:43;;;;;;;;;7.50;4.75;;;;;11.35;65.46;101821.94;4981057;28;45393;-83
2021/11/05 01:52:09;;;;;;;;;4.50;3.00;;;;;11.32;65.37;101827.25;4980788;28;45400;-83
2021/11/05 01:54:35;;;;;;;;;3.00;2.25;;;;;11.32;65.23;101825.47;4963113;28;46417;-83
2021/11/05 01:57:00;;;;;;;;;6.25;4.00;;;;;11.33;65.47;101826.34;4980918;28;45263;-77
2021/11/05 01:59:36;;;;;;;;;5.25;2.75;;;;;11.34;65.03;101828.06;4981044;28;45400;-77
2021/11/05 02:02:05;;;;;;;;;6.00;3.50;;;;;11.35;65.22;101824.56;4980876;28;45494;-78
2021/11/05 02:04:30;;;;;;;;;3.00;3.00;;;;;11.38;65.34;101831.53;4980861;28;46537;-78
2021/11/05 02:06:57;;;;;;;;;4.50;4.50;;;;;11.39;65.51;101834.13;4980778;28;45420;-79
2021/11/05 02:09:25;;;;;;;;;4.50;3.00;;;;;11.39;65.00;101834.13;4973594;28;45489;-79
2021/11/05 02:11:53;;;;;;;;;3.75;3.25;;;;;11.37;65.16;101835.91;4977553;28;45609;-82
2021/11/05 02:14:22;;;;;;;;;5.25;3.00;;;;;11.32;65.15;101838.66;4980390;28;45515;-82
2021/11/05 02:16:52;;;;;;;;;7.00;5.25;;;;;11.30;65.18;101839.56;4963821;28;45654;-82
2021/11/05 02:19:21;;;;;;;;;10.75;3.75;;;;;11.30;65.13;101843.06;4977193;28;45492;-82
2021/11/05 02:21:49;;;;;;;;;6.25;5.50;;;;;11.29;65.16;101849.22;4979458;28;45460;-82
2021/11/05 02:24:16;;;;;;;;;6.50;5.00;;;;;11.24;65.00;101845.78;4978562;28;45475;-81
2021/11/05 02:26:43;;;;;;;;;4.50;3.00;;;;;11.23;64.98;101850.22;4969845;28;45247;-79
2021/11/05 02:29:09;;;;;;;;;3.00;3.00;;;;;11.24;65.32;101858.97;4961052;28;45486;-79
2021/11/05 02:31:35;;;;;;;;;4.75;3.00;;;;;11.23;65.30;101855.47;4960903;28;45558;-82
2021/11/05 02:34:01;;;;;;;;;7.50;4.50;;;;;11.21;64.95;101857.25;4973508;28;46436;-81
2021/11/05 02:36:27;;;;;;;;;3.00;2.75;;;;;11.21;65.25;101862.50;4980432;28;45461;-82
2021/11/05 02:38:53;;;;;;;;;5.25;4.75;;;;;11.24;65.34;101862.47;4979388;28;45325;-83
2021/11/05 02:41:20;;;;;;;;;5.50;4.25;;;;;11.27;65.23;101866.81;4980395;28;45433;-83
2021/11/05 02:43:46;;;;;;;;;4.00;2.75;;;;;11.23;65.22;101859.88;4980084;28;45480;-83
2021/11/05 02:46:11;;;;;;;;;4.50;4.50;;;;;11.22;65.31;101863.38;4972806;28;45724;-82
2021/11/05 02:48:37;;;;;;;;;5.00;5.00;;;;;11.21;65.19;101867.78;4962531;28;45516;-82
2021/11/05 02:51:02;;;;;;;;;6.50;3.50;;;;;11.23;65.17;101866.00;4979873;28;45425;-82
2021/11/05 02:53:28;;;;;;;;;4.50;3.75;;;;;11.22;64.96;101868.66;4979977;28;45542;-82
2021/11/05 02:55:53;;;;;;;;;8.00;4.75;;;;;11.21;64.98;101873.03;4979758;28;45309;-80
2021/11/05 02:58:19;;;;;;;;;7.50;3.25;;;;;11.20;64.50;101876.59;4978944;28;45439;-81
2021/11/05 03:00:45;;;;;;;;;5.75;3.00;;;;;11.15;65.04;101878.41;4979936;28;45282;-82
2021/11/05 03:03:12;;;;;;;;;6.00;2.75;;;;;11.12;64.77;101876.72;4979784;28;45310;-82
2021/11/05 03:05:38;;;;;;;;;6.75;4.00;;;;;11.10;64.77;101878.50;4979387;28;45343;-82
2021/11/05 03:08:03;;;;;;;;;4.00;4.00;;;;;11.08;64.97;101882.06;4979256;28;45336;-82
2021/11/05 03:10:29;;;;;;;;;5.50;3.50;;;;;11.08;64.93;101892.56;4979639;28;45393;-82
2021/11/05 03:12:54;;;;;;;;;4.50;4.25;;;;;11.07;65.22;101889.06;4978375;28;46218;-80
2021/11/05 03:15:20;;;;;;;;;5.00;5.00;;;;;11.08;64.98;101887.31;4979861;28;45461;-80
2021/11/05 03:17:45;;;;;;;;;4.50;4.00;;;;;11.09;65.07;101891.66;4979665;28;45500;-79
2021/11/05 03:20:13;;;;;;;;;3.00;2.00;;;;;11.07;64.73;101891.69;4979429;28;45638;-79
2021/11/05 03:22:38;;;;;;;;;6.75;4.25;;;;;11.04;64.71;101897.00;4981281;28;45276;-79
2021/11/05 03:25:04;;;;;;;;;5.00;4.25;;;;;11.07;65.17;101898.72;4982062;28;46328;-79
2021/11/05 03:27:30;;;;;;;;;4.75;3.50;;;;;11.05;64.99;101903.13;4970954;28;45228;-80
2021/11/05 03:29:55;;;;;;;;;6.50;4.50;;;;;11.06;64.99;101905.75;4963397;28;46267;-80
2021/11/05 03:32:21;;;;;;;;;3.00;3.00;;;;;11.08;65.08;101913.63;4963389;28;45280;-83
2021/11/05 03:34:46;;;;;;;;;4.50;4.50;;;;;11.10;65.12;101911.84;4965191;28;45534;-81
2021/11/05 03:37:11;;;;;;;;;5.00;2.25;;;;;11.10;64.92;101909.19;4983219;28;45346;-80
2021/11/05 03:39:37;;;;;;;;;3.25;3.00;;;;;11.10;64.87;101917.09;4982269;28;45650;-80
2021/11/05 03:42:03;;;;;;;;;4.75;4.75;;;;;11.09;65.16;101920.59;4979973;28;45530;-80
2021/11/05 03:44:29;;;;;;;;;4.50;4.00;;;;;11.08;64.63;101924.16;4976297;28;45440;-80
2021/11/05 03:46:55;;;;;;;;;3.00;3.00;;;;;11.05;64.84;101921.56;4981447;28;45395;-80
2021/11/05 03:49:20;;;;;;;;;3.25;2.25;;;;;11.10;64.74;101938.13;4982617;28;45404;-80
2021/11/05 03:51:45;;;;;;;;;4.50;4.50;;;;;11.08;64.71;101932.03;4982549;28;46252;-80
2021/11/05 03:54:11;;;;;;;;;5.00;2.25;;;;;11.08;64.91;101934.66;4982517;28;45334;-78
2021/11/05 03:56:36;;;;;;;;;5.25;3.00;;;;;11.08;64.86;101943.44;4982941;28;45576;-78
2021/11/05 03:59:02;;;;;;;;;4.00;4.00;;;;;11.08;64.73;101939.94;4982393;28;45161;-81
2021/11/05 04:01:27;;;;;;;;;1.75;1.25;;;;;11.08;64.69;101950.47;4982550;28;45345;-80
2021/11/05 04:03:53;;;;;;;;;6.00;3.50;;;;;11.06;64.73;101944.34;4982504;28;45163;-80
2021/11/05 04:06:21;;;;;;;;;3.75;3.50;;;;;11.06;64.47;101955.75;4981726;28;45571;-80
2021/11/05 04:08:47;;;;;;;;;7.75;5.00;;;;;11.06;64.71;101960.13;4982157;28;45409;-80
2021/11/05 04:11:14;;;;;;;;;2.50;2.25;;;;;11.06;64.81;101962.78;4982377;28;45470;-80
2021/11/05 04:13:40;;;;;;;;;4.00;2.00;;;;;11.07;64.90;101969.75;4966580;28;45642;-82
2021/11/05 04:16:05;;;;;;;;;4.50;4.00;;;;;11.08;64.83;101969.75;4963118;28;45423;-80
2021/11/05 04:18:31;;;;;;;;;6.50;3.50;;;;;11.08;64.54;101982.91;4964774;28;45492;-80
2021/11/05 04:20:56;;;;;;;;;6.75;5.75;;;;;11.04;64.60;101983.81;4979710;28;46429;-80
2021/11/05 04:23:22;;;;;;;;;2.75;2.00;;;;;11.00;64.44;101985.66;4980424;28;45263;-80
2021/11/05 04:25:48;;;;;;;;;4.75;4.75;;;;;11.02;64.76;101994.38;4981141;28;45508;-80
2021/11/05 04:28:14;;;;;;;;;3.00;3.00;;;;;11.06;64.47;101997.84;4976635;28;45225;-80
2021/11/05 04:30:40;;;;;;;;;5.25;2.75;;;;;11.07;64.70;101996.06;4956370;28;46429;-79
2021/11/05 04:33:07;;;;;;;;;4.00;2.75;;;;;11.07;64.62;102003.97;4962319;28;46427;-79
2021/11/05 04:35:33;;;;;;;;;3.00;2.50;;;;;11.10;64.66;102009.19;4975445;28;45527;-79
2021/11/05 04:37:59;;;;;;;;;5.00;3.00;;;;;11.10;64.43;102014.44;4982192;28;45296;-79
2021/11/05 04:40:25;;;;;;;;;4.00;3.25;;;;;11.06;64.42;102015.41;4981620;28;46254;-80
2021/11/05 04:42:50;;;;;;;;;3.00;3.00;;;;;11.06;64.20;102020.66;4971390;28;45428;-79
2021/11/05 04:45:15;;;;;;;;;3.75;2.50;;;;;11.07;64.29;102018.00;4962711;28;45318;-79
2021/11/05 04:47:41;;;;;;;;;3.75;3.00;;;;;11.10;64.48;102019.72;4962231;28;45575;-80
2021/11/05 04:50:08;;;;;;;;;4.75;4.00;;;;;11.08;64.45;102022.38;4962251;28;45266;-76
2021/11/05 04:52:35;;;;;;;;;3.50;1.50;;;;;11.09;64.41;102025.84;4962275;28;46798;-76
2021/11/05 04:55:00;;;;;;;;;3.00;3.00;;;;;11.11;64.21;102035.47;4962365;28;45271;-80
2021/11/05 04:57:25;;;;;;;;;1.75;1.75;;;;;11.10;63.85;102027.59;4975764;28;46928;-80
2021/11/05 04:59:51;;;;;;;;;2.00;2.00;;;;;11.10;64.28;102036.38;4980145;28;46444;-80
2021/11/05 05:02:18;;;;;;;;;4.00;4.00;;;;;11.10;63.76;102031.13;4981391;28;45391;-78
2021/11/05 05:04:45;;;;;;;;;2.75;2.75;;;;;11.09;64.11;102031.13;4981903;28;45472;-78
2021/11/05 05:07:12;;;;;;;;;2.00;1.00;;;;;11.11;63.99;102040.72;4981448;28;45314;-79
2021/11/05 05:09:37;;;;;;;;;5.00;2.00;;;;;11.11;64.29;102045.16;4981261;28;45321;-79
2021/11/05 05:12:03;;;;;;;;;3.00;3.00;;;;;11.09;64.00;102036.38;4980989;28;45331;-79
2021/11/05 05:14:28;;;;;;;;;4.00;2.50;;;;;11.06;63.96;102042.59;4981800;28;45426;-78
2021/11/05 05:16:53;;;;;;;;;4.00;2.00;;;;;11.06;64.04;102041.72;4980402;28;45904;-78
2021/11/05 05:19:20;;;;;;;;;3.75;2.00;;;;;11.03;64.07;102046.13;4980113;28;45680;-78
2021/11/05 05:21:46;;;;;;;;;5.00;3.00;;;;;11.03;64.20;102047.88;4962022;28;45562;-78
2021/11/05 05:24:11;;;;;;;;;2.75;2.50;;;;;10.98;63.94;102050.56;4961753;28;45427;-78
2021/11/05 05:26:37;;;;;;;;;7.00;2.75;;;;;10.98;64.04;102047.94;4964456;28;45393;-78
2021/11/05 05:29:02;;;;;;;;;4.50;2.00;;;;;11.01;64.22;102052.28;4961757;28;46387;-78
2021/11/05 05:31:28;;;;;;;;;4.00;3.50;;;;;11.02;63.91;102056.66;4961770;28;45444;-78
2021/11/05 05:33:53;;;;;;;;;5.75;3.50;;;;;11.03;64.03;102053.13;4961744;28;45311;-78
2021/11/05 05:36:19;;;;;;;;;2.50;2.00;;;;;11.03;63.82;102061.91;4962060;28;45295;-78
2021/11/05 05:38:44;;;;;;;;;7.00;3.00;;;;;11.02;63.74;102067.16;4978811;28;46448;-78
2021/11/05 05:41:11;;;;;;;;;1.75;1.75;;;;;11.01;63.71;102076.81;4981071;28;45384;-78
2021/11/05 05:43:36;;;;;;;;;5.00;3.00;;;;;10.99;63.80;102069.84;4964403;28;45165;-79
2021/11/05 05:46:02;;;;;;;;;4.75;2.50;;;;;11.00;63.79;102075.09;4971004;28;45363;-77
2021/11/05 05:48:27;;;;;;;;;4.00;3.00;;;;;11.02;63.57;102081.22;4980601;28;45144;-77
2021/11/05 05:50:53;;;;;;;;;5.25;3.25;;;;;11.00;63.69;102083.00;4979504;28;45338;-77
2021/11/05 05:53:18;;;;;;;;;4.00;2.75;;;;;11.01;63.50;102086.50;4969955;28;45538;-77
2021/11/05 05:55:44;;;;;;;;;2.50;2.50;;;;;11.00;63.66;102085.63;4975830;28;45453;-76
2021/11/05 05:58:10;;;;;;;;;3.25;2.75;;;;;11.00;63.59;102093.50;4965047;28;45242;-76
2021/11/05 06:00:36;;;;;;;;;2.75;2.75;;;;;11.03;63.60;102098.75;4965962;28;45256;-76
2021/11/05 06:03:02;;;;;;;;;1.25;1.25;;;;;11.03;63.66;102096.13;4972580;28;45580;-76
2021/11/05 06:05:27;;;;;;;;;2.50;2.50;;;;;11.04;63.51;102102.22;4966721;28;45481;-76
2021/11/05 06:07:53;;;;;;;;;4.75;2.00;;;;;11.03;63.44;102109.28;4960999;28;46496;-76
2021/11/05 06:10:18;;;;;;;;;4.25;2.00;;;;;11.05;63.68;102111.00;4975292;28;45425;-76
2021/11/05 06:12:44;;;;;;;;;2.75;2.75;;;;;11.06;63.28;102113.63;4978854;28;45463;-76
2021/11/05 06:15:09;;;;;;;;;3.00;3.00;;;;;11.05;63.33;102114.50;4962356;28;45609;-76
2021/11/05 06:17:35;;;;;;;;;3.00;3.00;;;;;11.06;63.55;102125.91;4960725;28;45358;-76
2021/11/05 06:20:02;;;;;;;;;4.50;2.75;;;;;11.05;63.51;102122.41;4967093;28;45338;-76
2021/11/05 06:22:28;;;;;;;;;3.00;3.00;;;;;11.10;63.47;102133.72;4980610;28;45287;-76
2021/11/05 06:24:53;;;;;;;;;5.50;2.75;;;;;11.12;63.42;102129.31;4979988;28;45468;-76
2021/11/05 06:27:19;;;;;;;;;4.00;4.00;;;;;11.15;63.24;102125.78;4967970;28;46071;-76
2021/11/05 06:29:44;;;;;;;;;3.75;2.50;;;;;11.12;63.01;102131.06;4960760;28;45264;-76
2021/11/05 06:32:10;;;;;;;;;4.00;3.00;;;;;11.10;63.35;102135.50;4965163;28;45493;-78
2021/11/05 06:34:35;;;;;;;;;4.75;2.50;;;;;11.11;63.33;102134.63;4971736;28;45452;-78
2021/11/05 06:37:01;;;;;;;;;3.00;2.00;;;;;11.10;63.19;102146.88;4977127;28;45330;-77
2021/11/05 06:39:27;;;;;;;;;4.00;2.25;;;;;11.11;63.04;102153.88;4972156;28;45414;-77
2021/11/05 06:41:52;;;;;;;;;3.00;2.25;;;;;11.11;63.01;102150.41;4969218;28;45363;-77
2021/11/05 06:44:18;;;;;;;;;3.75;2.00;;;;;11.08;63.25;102160.94;4977067;28;45322;-77
2021/11/05 06:46:43;;;;;;;;;3.00;2.75;;;;;11.13;63.13;102164.41;4975647;28;46197;-78
2021/11/05 06:49:08;;;;;;;;;4.00;3.00;;;;;11.12;63.37;102165.28;4960530;28;45364;-78
2021/11/05 06:51:34;;;;;;;;;2.00;2.00;;;;;11.12;63.06;102168.78;4960614;28;45370;-76
2021/11/05 06:53:59;;;;;;;;;4.00;1.50;;;;;11.12;62.66;102178.44;4961562;28;45406;-74
2021/11/05 06:56:25;;;;;;;;;4.25;3.75;;;;;11.14;62.99;102182.78;4978780;28;45445;-76
2021/11/05 06:58:51;;;;;;;;;3.00;3.00;;;;;11.08;62.79;102182.88;4983396;28;45513;-76
2021/11/05 07:01:17;;;;;;;;;3.00;3.00;;;;;11.08;62.94;102195.16;4983743;28;45164;-76
2021/11/05 07:03:43;;;;;;;;;3.00;3.00;;;;;11.08;62.87;102192.53;4983460;28;45533;-76
2021/11/05 07:06:09;;;;;;;;;2.75;2.00;;;;;11.08;62.83;102196.03;4983523;28;45543;-76
2021/11/05 07:08:34;;;;;;;;;5.00;2.00;;;;;11.11;62.92;102208.28;4981516;28;45151;-76
2021/11/05 07:11:00;;;;;;;;;4.25;4.25;;;;;11.11;62.80;102210.94;4976824;28;45232;-76
2021/11/05 07:13:26;;;;;;;;;3.25;2.00;;;;;11.10;62.81;102206.53;4952638;28;45928;-75
2021/11/05 07:15:52;;;;;;;;;2.50;2.50;;;;;11.08;62.78;102213.59;4981568;28;46064;-75
2021/11/05 07:18:18;;;;;;;;;4.00;2.25;;;;;11.12;63.00;102215.28;4980389;28;45420;-75
2021/11/05 07:20:44;;;;;;;;;3.50;3.00;;;;;11.18;62.91;102220.50;4963849;28;45242;-75
2021/11/05 07:23:12;;;;;;;;;4.00;4.00;;;;;11.18;62.61;102216.97;4963704;28;45393;-75
2021/11/05 07:25:39;;;;;;;;;3.50;2.25;;;;;11.18;62.67;102225.75;4970745;28;46235;-75
2021/11/05 07:28:04;;;;;;;;;4.75;2.00;;;;;11.17;62.62;102229.25;4967211;28;45176;-75
2021/11/05 07:30:30;;;;;;;;;2.75;2.00;;;;;11.18;63.06;102236.28;4963723;28;45826;-75
2021/11/05 07:32:56;;;;;;;;;4.50;2.00;;;;;11.19;62.30;102240.63;4963299;28;45199;-75
2021/11/05 07:35:22;;;;;;;;;3.25;2.75;;;;;11.17;62.06;102239.78;4963496;28;46484;-75
2021/11/05 07:37:49;;;;;;;;;2.25;2.25;;;;;11.17;62.40;102247.69;4963481;28;45728;-75
2021/11/05 07:40:15;;;;;;;;;3.00;3.00;;;;;11.20;62.52;102252.91;4973478;28;45890;-75
2021/11/05 07:42:42;;;;;;;;;5.25;3.50;;;;;11.21;62.59;102259.06;4982758;28;45358;-75
2021/11/05 07:45:09;;;;;;;;;2.50;1.50;;;;;11.21;62.60;102265.16;4982704;28;45422;-76
2021/11/05 07:47:35;;;;;;;;;4.50;2.75;;;;;11.24;62.30;102272.16;4982767;28;45227;-75
2021/11/05 07:50:04;;;;;;;;;4.25;3.00;;;;;11.25;62.45;102268.66;4965065;28;45393;-75
2021/11/05 07:52:29;;;;;;;;;3.00;3.00;;;;;11.27;62.50;102274.78;4982703;28;45446;-75
2021/11/05 07:54:55;;;;;;;;;3.75;2.00;;;;;11.27;62.16;102281.78;4978535;28;46678;-75
2021/11/05 07:57:20;;;;;;;;;2.00;2.00;;;;;11.27;62.48;102279.16;4963161;28;45509;-75
2021/11/05 07:59:46;;;;;;;;;4.75;3.50;;;;;11.29;62.40;102286.16;4963438;28;45254;-75
2021/11/05 08:02:13;;;;;;;;;4.00;3.00;;;;;11.28;62.23;102284.41;4962884;28;45495;-75
2021/11/05 08:04:39;;;;;;;;;10.25;5.50;;;;;11.30;62.18;102295.81;4962906;28;45327;-75
2021/11/05 08:07:04;;;;;;;;;5.00;4.00;;;;;11.29;62.29;102296.69;4970378;28;45217;-75
2021/11/05 08:09:30;;;;;;;;;5.50;5.00;;;;;11.31;62.24;102302.78;4979857;28;45224;-75
2021/11/05 08:11:55;;;;;;;;;7.00;5.00;;;;;11.32;62.00;102306.31;4973659;28;45243;-75
2021/11/05 08:14:20;;;;;;;;;5.00;3.50;;;;;11.34;62.40;102307.16;4964874;28;46237;-75
2021/11/05 08:16:46;;;;;;;;;9.25;6.00;;;;;11.35;62.17;102311.53;4981836;28;45231;-75
2021/11/05 08:19:11;;;;;;;;;9.25;8.75;;;;;11.37;61.83;102317.66;4980844;28;45439;-75
2021/11/05 08:21:37;;;;;;;;;10.25;9.00;;;;;11.39;62.55;102317.63;4968470;28;45501;-75
2021/11/05 08:24:03;;;;;;;;;5.25;4.00;;;;;11.42;62.03;102326.38;4972345;28;45667;-75
2021/11/05 08:26:29;;;;;;;;;3.00;3.00;;;;;11.43;61.13;102324.63;4955813;28;45940;-76
2021/11/05 08:28:55;;;;;;;;;8.75;4.75;;;;;11.43;62.03;102329.91;4962661;28;45365;-76
2021/11/05 08:31:21;;;;;;;;;8.50;8.50;;;;;11.46;62.28;102333.34;4962968;28;45440;-75
2021/11/05 08:33:47;;;;;;;;;7.00;4.25;;;;;11.46;62.08;102329.84;4963051;28;46452;-75
2021/11/05 08:36:15;;;;;;;;;6.25;4.00;;;;;11.43;61.98;102330.75;4973954;28;45167;-76
2021/11/05 08:38:43;;;;;;;;;5.25;5.25;;;;;11.43;61.84;102329.91;4974577;28;45653;-76
2021/11/05 08:41:09;;;;;;;;;11.00;6.00;;;;;11.42;62.05;102334.28;4965502;28;45424;-76
2021/11/05 08:43:34;;;;;;;;;5.50;4.25;;;;;11.40;61.83;102337.81;4965690;28;45443;-75
2021/11/05 08:46:02;;;;;;;;;8.25;6.00;;;;;11.40;61.86;102335.19;4981604;28;45290;-75
2021/11/05 08:48:29;;;;;;;;;6.75;5.00;;;;;11.44;61.91;102350.06;4981839;28;45310;-76
2021/11/05 08:50:57;;;;;;;;;6.50;6.25;;;;;11.44;61.98;102352.69;4979801;28;45437;-76
2021/11/05 08:53:23;;;;;;;;;7.00;5.00;;;;;11.47;62.16;102366.69;4979515;28;46584;-78
2021/11/05 08:55:49;;;;;;;;;4.00;3.00;;;;;11.45;61.67;102368.47;4973112;28;45613;-75
2021/11/05 08:58:14;;;;;;;;;5.50;4.00;;;;;11.51;62.13;102371.94;4980206;28;45591;-75
2021/11/05 09:00:40;;;;;;;;;4.50;4.50;;;;;11.54;62.04;102377.16;4978925;28;47140;-76
2021/11/05 09:03:05;;;;;;;;;6.50;4.25;;;;;11.57;61.77;102372.75;4958973;28;47170;-76
2021/11/05 09:05:35;;;;;;;;;5.00;5.00;;;;;11.62;61.56;102383.22;4975958;28;45329;-75
2021/11/05 09:08:01;;;;;;;;;4.25;4.00;;;;;11.68;61.82;102385.78;4980411;28;45576;-75
2021/11/05 09:10:28;;;;;;;;;6.00;4.25;;;;;11.73;61.46;102387.50;4981020;28;45412;-75
2021/11/05 09:12:53;;;;;;;;;7.25;5.25;;;;;11.70;61.56;102384.00;4977746;28;45533;-76
2021/11/05 09:15:26;;;;;;;;;5.00;5.00;;;;;11.73;61.49;102388.34;4980625;28;45488;-75
2021/11/05 09:17:53;;;;;;;;;7.75;5.75;;;;;11.82;61.83;102390.03;4972244;28;46023;-75
2021/11/05 09:20:19;;;;;;;;;11.00;7.50;;;;;11.87;61.62;102393.47;4969815;28;45369;-75
2021/11/05 09:22:46;;;;;;;;;8.00;6.50;;;;;11.93;61.58;102398.66;4970291;28;45415;-75
2021/11/05 09:25:12;;;;;;;;;6.25;4.00;;;;;11.97;60.86;102404.78;4974943;28;46032;-75
2021/11/05 09:27:37;;;;;;;;;5.00;4.00;;;;;12.00;61.04;102409.16;4977155;28;45231;-75
2021/11/05 09:30:05;;;;;;;;;5.00;4.00;;;;;12.03;61.03;102409.09;4978194;28;45205;-79
2021/11/05 09:32:30;;;;;;;;;7.50;5.00;;;;;12.05;60.81;102412.56;4972898;28;45464;-76
2021/11/05 09:34:56;;;;;;;;;6.50;4.25;;;;;12.09;60.99;102416.94;4977454;28;45228;-75
2021/11/05 09:37:21;;;;;;;;;4.75;4.75;;;;;12.08;60.62;102417.81;4964366;28;47015;-75
2021/11/05 09:39:47;;;;;;;;;5.75;5.50;;;;;12.11;60.42;102430.09;4967571;28;45499;-75
2021/11/05 09:42:14;;;;;;;;;8.25;6.50;;;;;12.10;60.81;102417.81;4979925;28;45488;-75
2021/11/05 09:44:39;;;;;;;;;4.00;4.00;;;;;12.09;60.46;102430.13;4979109;28;45482;-75
2021/11/05 09:47:05;;;;;;;;;4.50;4.00;;;;;12.04;60.20;102424.91;4979608;28;45516;-75
2021/11/05 09:49:32;;;;;;;;;4.00;4.00;;;;;12.06;60.23;102427.50;4980711;28;45391;-75
2021/11/05 09:52:01;;;;;;;;;4.75;3.75;;;;;12.06;60.27;102435.41;4974690;28;45653;-75
2021/11/05 09:54:29;;;;;;;;;7.25;5.25;;;;;12.07;60.09;102450.34;4970753;28;45527;-75
2021/11/05 09:56:54;;;;;;;;;9.50;5.75;;;;;12.08;60.43;102449.44;4980856;28;45279;-75
2021/11/05 09:59:20;;;;;;;;;5.50;5.00;;;;;12.09;60.64;102453.84;4980075;28;45409;-75
2021/11/05 10:01:46;;;;;;;;;4.75;4.00;;;;;12.11;60.24;102456.44;4978134;28;45454;-75
2021/11/05 10:04:13;;;;;;;;;5.00;5.00;;;;;12.10;60.41;102458.19;4971076;28;45774;-75
2021/11/05 10:06:39;;;;;;;;;4.50;4.25;;;;;12.08;60.37;102460.00;4968374;28;45276;-75
2021/11/05 10:09:14;;;;;;;;;6.25;4.75;;;;;12.13;60.26;102466.13;4966753;28;45460;-76
2021/11/05 10:11:40;;;;;;;;;6.75;6.00;;;;;12.18;60.38;102462.53;4969903;28;46168;-75
2021/11/05 10:14:17;;;;;;;;;7.00;7.00;;;;;12.22;60.13;102461.63;4979498;28;45232;-76
2021/11/05 10:16:58;;;;;;;;;5.75;4.75;;;;;12.23;60.00;102469.50;4980070;28;45321;-76
2021/11/05 10:19:23;;;;;;;;;7.00;7.00;;;;;12.29;60.11;102473.84;4976311;28;45160;-75
2021/11/05 10:21:48;;;;;;;;;5.75;5.75;;;;;12.34;59.97;102481.69;4975450;28;45421;-76
2021/11/05 10:24:17;;;;;;;;;6.25;6.25;;;;;12.36;59.86;102483.44;4967284;28;45433;-76
2021/11/05 10:26:44;;;;;;;;;5.00;5.00;;;;;12.36;59.91;102475.50;4974134;28;45496;-76
2021/11/05 10:29:28;;;;;;;;;4.50;4.25;;;;;12.44;59.72;102477.19;4978922;28;45409;-76
2021/11/05 10:32:05;;;;;;;;;6.00;4.50;;;;;12.49;59.50;102475.34;4978040;28;45341;-75
2021/11/05 10:34:51;;;;;;;;;7.50;5.00;;;;;12.57;59.12;102480.50;4979821;28;45732;-75
2021/11/05 10:37:32;;;;;;;;;5.00;5.00;;;;;12.60;59.41;102489.25;4976843;28;45404;-75
2021/11/05 10:39:59;;;;;;;;;4.00;4.00;;;;;12.63;58.95;102485.72;4972737;28;45553;-75
2021/11/05 10:42:39;;;;;;;;;6.00;4.00;;;;;12.67;59.10;102483.88;4977943;28;46225;-76
2021/11/05 10:45:14;;;;;;;;;5.50;3.75;;;;;12.70;59.12;102492.66;4978097;28;45782;-76
2021/11/05 10:47:55;;;;;;;;;4.75;3.00;;;;;12.74;59.08;102489.97;4975956;28;45452;-75
2021/11/05 10:50:23;;;;;;;;;4.75;3.00;;;;;12.71;58.90;102490.91;4962128;28;45373;-76
2021/11/05 10:53:03;;;;;;;;;4.75;3.00;;;;;12.74;58.95;102489.97;4960574;28;45447;-76
2021/11/05 10:55:49;;;;;;;;;3.50;3.00;;;;;12.76;58.70;102489.06;4971791;28;45583;-75
2021/11/05 10:58:18;;;;;;;;;5.50;4.00;;;;;12.77;58.50;102492.56;4980164;28;45469;-76
2021/11/05 11:00:44;;;;;;;;;5.00;4.00;;;;;12.78;58.50;102486.41;4979820;28;45285;-76
2021/11/05 11:03:33;;;;;;;;;4.75;3.00;;;;;12.79;58.56;102491.63;4979586;28;45364;-76
2021/11/05 11:06:04;;;;;;;;;8.00;4.00;;;;;12.85;58.88;102497.72;4977751;28;45704;-76
2021/11/05 11:08:33;;;;;;;;;2.25;2.25;;;;;12.82;58.14;102486.31;4966623;28;45223;-76
2021/11/05 11:11:22;;;;;;;;;5.50;4.00;;;;;12.83;58.18;102496.00;4964631;28;45422;-76
2021/11/05 11:13:55;;;;;;;;;6.00;5.00;;;;;12.82;58.27;102494.25;4962035;28;47209;-76
2021/11/05 11:16:28;;;;;;;;;2.75;2.00;;;;;12.87;58.76;102491.53;4975640;28;45600;-76
2021/11/05 11:19:03;;;;;;;;;3.25;3.25;;;;;12.91;58.03;102492.38;4965765;28;45544;-75
2021/11/05 11:21:40;;;;;;;;;3.25;3.25;;;;;12.93;57.54;102501.13;4960178;28;45397;-76